createdAt,value
2023-04-02T00:00:23.815Z,5.91
2023-04-02T00:03:03.863Z,5.88
2023-04-02T00:05:52.870Z,5.85
2023-04-02T00:08:32.340Z,5.82
2023-04-02T00:11:02.383Z,5.78
2023-04-02T00:13:36.964Z,5.72
2023-04-02T00:16:09.004Z,5.58
2023-04-02T00:18:44.029Z,5.39
2023-04-02T00:21:17.560Z,5.18
2023-04-02T00:23:46.214Z,5.00
2023-04-02T00:26:26.776Z,4.84
2023-04-02T00:28:57.984Z,4.70
2023-04-02T00:31:27.787Z,4.59
2023-04-02T00:33:57.232Z,4.51
2023-04-02T00:36:30.194Z,4.42
2023-04-02T00:39:05.104Z,4.34
2023-04-02T00:41:36.157Z,4.25
2023-04-02T00:44:07.318Z,4.20
2023-04-02T00:46:49.747Z,4.12
2023-04-02T00:49:28.687Z,4.06
2023-04-02T00:52:02.077Z,3.99
2023-04-02T00:54:40.276Z,3.92
2023-04-02T00:57:18.059Z,3.87
2023-04-02T00:59:58.459Z,3.80
2023-04-02T01:02:31.847Z,3.73
2023-04-02T01:05:02.319Z,3.67
2023-04-02T01:07:59.968Z,3.61
2023-04-02T01:10:51.528Z,3.57
2023-04-02T01:13:28.684Z,3.52
2023-04-02T01:16:06.169Z,3.48
2023-04-02T01:18:51.496Z,3.46
2023-04-02T01:21:53.944Z,3.40
2023-04-02T01:24:26.657Z,3.38
2023-04-02T01:26:58.408Z,3.35
2023-04-02T01:29:31.580Z,3.32
2023-04-02T01:32:04.287Z,3.29
2023-04-02T01:34:33.785Z,3.24
2023-04-02T01:37:23.293Z,3.20
2023-04-02T01:40:09.297Z,3.15
2023-04-02T01:42:50.552Z,3.10
2023-04-02T01:45:23.768Z,3.08
2023-04-02T01:47:52.911Z,3.05
2023-04-02T01:50:32.248Z,3.02
2023-04-02T01:53:04.092Z,3.00
2023-04-02T01:55:41.986Z,2.98
2023-04-02T01:58:12.507Z,2.95
2023-04-02T02:00:48.863Z,2.93
2023-04-02T02:03:17.940Z,2.89
2023-04-02T02:05:47.531Z,2.86
2023-04-02T02:08:36.026Z,2.83
2023-04-02T02:11:05.722Z,2.79
2023-04-02T02:13:34.069Z,2.76
2023-04-02T02:16:06.171Z,2.71
2023-04-02T02:18:35.227Z,2.69
2023-04-02T02:21:09.373Z,2.65
2023-04-02T02:23:38.396Z,2.60
2023-04-02T02:26:08.139Z,2.58
2023-04-02T02:28:41.452Z,2.56
2023-04-02T02:31:18.681Z,2.50
2023-04-02T02:33:53.696Z,2.46
2023-04-02T02:36:29.472Z,2.41
2023-04-02T02:39:03.623Z,2.38
2023-04-02T02:41:41.495Z,2.35
2023-04-02T02:44:18.804Z,2.33
2023-04-02T02:46:53.074Z,2.30
2023-04-02T02:49:28.459Z,2.29
2023-04-02T02:52:05.545Z,2.26
2023-04-02T02:54:36.400Z,2.22
2023-04-02T02:57:10.080Z,2.17
2023-04-02T02:59:39.564Z,2.15
2023-04-02T03:02:11.051Z,2.12
2023-04-02T03:04:40.333Z,2.10
2023-04-02T03:07:10.458Z,2.07
2023-04-02T03:09:48.666Z,2.03
2023-04-02T03:12:38.037Z,2.02
2023-04-02T03:15:21.468Z,2.00
2023-04-02T03:17:57.767Z,1.99
2023-04-02T03:20:34.166Z,1.96
2023-04-02T03:23:13.854Z,1.96
2023-04-02T03:25:48.738Z,1.93
2023-04-02T03:28:22.476Z,1.89
2023-04-02T03:30:56.996Z,1.88
2023-04-02T03:33:32.628Z,1.87
2023-04-02T03:36:18.948Z,1.84
2023-04-02T03:38:52.987Z,1.83
2023-04-02T03:41:28.278Z,1.81
2023-04-02T03:44:00.470Z,1.81
2023-04-02T03:46:33.142Z,1.79
2023-04-02T03:49:08.419Z,1.77
2023-04-02T03:51:45.482Z,1.77
2023-04-02T03:54:17.385Z,1.75
2023-04-02T03:56:47.673Z,1.74
2023-04-02T03:59:25.994Z,1.70
2023-04-02T04:02:00.940Z,1.71
2023-04-02T04:04:33.419Z,1.71
2023-04-02T04:07:03.031Z,1.69
2023-04-02T04:09:34.647Z,1.68
2023-04-02T04:12:16.650Z,1.66
2023-04-02T04:14:51.389Z,1.66
2023-04-02T04:17:30.183Z,1.67
2023-04-02T04:20:10.856Z,1.65
2023-04-02T04:22:40.940Z,1.66
2023-04-02T04:25:22.860Z,1.63
2023-04-02T04:28:11.487Z,1.58
2023-04-02T04:30:51.444Z,1.57
2023-04-02T04:33:24.914Z,1.55
2023-04-02T04:35:59.155Z,1.53
2023-04-02T04:38:34.418Z,1.53
2023-04-02T04:41:07.972Z,1.52
2023-04-02T04:43:46.815Z,1.50
2023-04-02T04:46:19.638Z,1.47
2023-04-02T04:48:55.889Z,1.46
2023-04-02T04:51:31.821Z,1.44
2023-04-02T04:54:01.889Z,1.43
2023-04-02T04:56:32.296Z,1.41
2023-04-02T04:59:05.223Z,1.41
2023-04-02T05:01:40.541Z,1.41
2023-04-02T05:04:18.524Z,1.42
2023-04-02T05:06:57.044Z,1.44
2023-04-02T05:09:34.286Z,1.44
2023-04-02T05:12:13.340Z,1.43
2023-04-02T05:14:48.242Z,1.45
2023-04-02T05:17:22.775Z,1.45
2023-04-02T05:19:57.762Z,1.45
2023-04-02T05:22:36.280Z,1.46
2023-04-02T05:25:21.534Z,1.49
2023-04-02T05:27:56.071Z,1.51
2023-04-02T05:30:49.443Z,1.51
2023-04-02T05:33:27.748Z,1.55
2023-04-02T05:36:02.268Z,1.57
2023-04-02T05:38:35.918Z,1.59
2023-04-02T05:41:08.144Z,1.62
2023-04-02T05:43:39.213Z,1.63
2023-04-02T05:46:17.792Z,1.64
2023-04-02T05:48:52.415Z,1.66
2023-04-02T05:51:27.572Z,1.70
2023-04-02T05:54:00.798Z,1.74
2023-04-02T05:56:36.062Z,1.78
2023-04-02T05:59:10.622Z,1.84
2023-04-02T06:01:47.346Z,1.90
2023-04-02T06:04:26.645Z,1.96
2023-04-02T06:07:03.975Z,2.03
2023-04-02T06:09:47.373Z,2.11
2023-04-02T06:12:25.969Z,2.22
2023-04-02T06:14:54.888Z,2.29
2023-04-02T06:17:23.998Z,2.40
2023-04-02T06:19:54.657Z,2.51
2023-04-02T06:22:33.891Z,2.62
2023-04-02T06:25:07.853Z,2.73
2023-04-02T06:27:36.705Z,2.83
2023-04-02T06:30:11.729Z,2.96
2023-04-02T06:32:40.440Z,3.06
2023-04-02T06:35:14.307Z,3.14
2023-04-02T06:37:47.201Z,3.24
2023-04-02T06:40:40.373Z,3.32
2023-04-02T06:43:17.710Z,3.36
2023-04-02T06:45:51.834Z,3.47
2023-04-02T06:48:22.321Z,3.60
2023-04-02T06:50:56.653Z,3.71
2023-04-02T06:53:29.544Z,3.85
2023-04-02T06:56:05.681Z,3.96
2023-04-02T06:58:34.309Z,4.04
2023-04-02T07:01:02.719Z,4.12
2023-04-02T07:03:34.070Z,4.18
2023-04-02T07:06:04.859Z,4.26
2023-04-02T07:08:33.346Z,4.32
2023-04-02T07:11:03.146Z,4.36
2023-04-02T07:13:31.650Z,4.41
2023-04-02T07:16:00.168Z,4.45
2023-04-02T07:18:31.429Z,4.49
2023-04-02T07:21:00.264Z,4.53
2023-04-02T07:23:28.806Z,4.57
2023-04-02T07:25:58.527Z,4.61
2023-04-02T07:28:28.688Z,4.67
2023-04-02T07:30:58.007Z,4.74
2023-04-02T07:33:30.186Z,4.79
2023-04-02T07:35:59.504Z,4.83
2023-04-02T07:38:28.209Z,4.86
2023-04-02T07:40:57.091Z,4.97
2023-04-02T07:43:25.937Z,5.16
2023-04-02T07:45:55.878Z,5.41
2023-04-02T07:48:24.844Z,5.58
2023-04-02T07:50:54.979Z,5.72
2023-04-02T07:53:30.892Z,5.90
2023-04-02T07:56:02.912Z,6.05
2023-04-02T07:58:32.416Z,6.10
2023-04-02T08:01:03.788Z,6.23
2023-04-02T08:03:32.879Z,6.35
2023-04-02T08:06:01.463Z,6.36
2023-04-02T08:08:29.899Z,6.40
2023-04-02T08:10:58.240Z,6.43
2023-04-02T08:13:27.597Z,6.47
2023-04-02T08:15:56.274Z,6.57
2023-04-02T08:18:28.150Z,6.75
2023-04-02T08:20:57.278Z,6.95
2023-04-02T08:23:26.652Z,7.08
2023-04-02T08:25:56.186Z,7.22
2023-04-02T08:28:25.549Z,7.40
2023-04-02T08:30:54.057Z,7.61
2023-04-02T08:33:22.555Z,7.53
2023-04-02T08:35:53.141Z,7.47
2023-04-02T08:38:23.827Z,7.44
2023-04-02T08:40:54.855Z,7.44
2023-04-02T08:43:42.813Z,7.35
2023-04-02T08:46:20.051Z,7.18
2023-04-02T08:48:57.000Z,7.19
2023-04-02T08:51:31.039Z,7.20
2023-04-02T08:54:05.233Z,7.29
2023-04-02T08:56:41.423Z,7.34
2023-04-02T08:59:21.307Z,7.28
2023-04-02T09:01:58.037Z,7.29
2023-04-02T09:04:27.881Z,7.41
2023-04-02T09:07:00.830Z,7.63
2023-04-02T09:09:29.576Z,7.91
2023-04-02T09:12:02.901Z,8.10
2023-04-02T09:14:43.373Z,8.17
2023-04-02T09:17:19.547Z,8.24
2023-04-02T09:20:19.319Z,8.19
2023-04-02T09:22:58.702Z,8.14
2023-04-02T09:25:42.202Z,8.08
2023-04-02T09:28:14.020Z,8.09
2023-04-02T09:31:06.875Z,8.19
2023-04-02T09:33:45.911Z,8.42
2023-04-02T09:36:42.089Z,8.50
2023-04-02T09:39:30.657Z,8.58
2023-04-02T09:42:09.624Z,8.71
2023-04-02T09:45:14.807Z,8.86
2023-04-02T09:47:47.922Z,8.97
2023-04-02T09:50:36.347Z,9.06
2023-04-02T09:53:34.069Z,9.10
2023-04-02T09:56:26.293Z,9.05
2023-04-02T09:59:08.497Z,9.15
2023-04-02T10:01:43.684Z,9.22
2023-04-02T10:04:37.482Z,9.32
2023-04-02T10:07:38.549Z,9.44
2023-04-02T10:10:28.031Z,9.56
2023-04-02T10:13:06.253Z,9.82
2023-04-02T10:18:48.213Z,10.05
2023-04-02T10:21:40.033Z,10.15
2023-04-02T10:24:14.877Z,10.10
2023-04-02T10:27:18.113Z,10.10
2023-04-02T10:30:15.642Z,10.15
2023-04-02T10:32:56.796Z,10.27
2023-04-02T10:35:43.129Z,10.36
2023-04-02T10:38:40.424Z,10.41
2023-04-02T10:42:04.014Z,10.42
2023-04-02T10:45:52.832Z,10.41
2023-04-02T10:48:36.007Z,10.42
2023-04-02T10:51:09.665Z,10.51
2023-04-02T10:54:01.802Z,10.62
2023-04-02T10:56:44.466Z,10.78
2023-04-02T10:59:33.583Z,10.93
2023-04-02T11:05:31.821Z,11.09
2023-04-02T11:46:05.921Z,12.45
2023-04-02T11:49:45.349Z,12.51
2023-04-02T11:58:01.567Z,13.09
2023-04-02T12:01:21.954Z,13.32
2023-04-02T12:05:10.624Z,13.84
2023-04-02T12:08:14.712Z,14.32
2023-04-02T12:11:19.021Z,14.22
2023-04-02T12:18:19.552Z,13.96
2023-04-02T12:21:49.617Z,14.01
2023-04-02T12:24:42.400Z,13.72
2023-04-02T12:29:25.002Z,13.94
2023-04-02T12:32:54.611Z,14.56
2023-04-02T12:53:46.350Z,17.45
2023-04-02T13:11:54.508Z,19.70
2023-04-02T13:29:16.135Z,21.14
2023-04-02T13:35:14.948Z,21.69
2023-04-02T13:37:51.035Z,22.09
2023-04-02T13:40:49.209Z,22.50
2023-04-02T13:43:37.098Z,22.82
2023-04-02T13:47:59.378Z,23.61
2023-04-02T13:50:48.927Z,22.68
2023-04-02T13:53:59.237Z,22.67
2023-04-02T13:57:06.402Z,23.20
2023-04-02T13:59:48.236Z,23.04
2023-04-02T14:06:13.524Z,23.86
2023-04-02T14:10:14.252Z,24.34
2023-04-02T14:14:01.805Z,22.77
2023-04-02T14:17:01.931Z,23.48
2023-04-02T14:21:05.816Z,24.08
2023-04-02T14:29:53.916Z,24.61
2023-04-02T15:23:22.136Z,28.72
2023-04-02T15:26:14.484Z,28.58
2023-04-02T15:43:02.727Z,29.26
2023-04-02T15:51:10.159Z,29.12
2023-04-02T15:54:46.649Z,29.16
2023-04-02T15:58:13.505Z,29.21
2023-04-02T16:01:09.891Z,29.40
2023-04-02T16:13:40.725Z,29.40
2023-04-02T16:16:23.159Z,29.39
2023-04-02T16:32:16.231Z,28.01
2023-04-02T16:36:04.232Z,28.23
2023-04-02T17:02:07.827Z,27.24
2023-04-02T17:05:41.777Z,26.78
2023-04-02T17:17:48.982Z,25.70
2023-04-02T17:25:42.880Z,24.74
2023-04-02T17:28:44.599Z,24.40
2023-04-02T17:31:40.435Z,23.90
2023-04-02T17:34:34.821Z,23.36
2023-04-02T17:37:58.715Z,22.31
2023-04-02T17:41:00.545Z,21.68
2023-04-02T17:44:02.657Z,21.00
2023-04-02T17:47:02.334Z,19.67
2023-04-02T17:51:04.004Z,18.62
2023-04-02T17:54:05.606Z,16.99
2023-04-02T17:58:22.842Z,15.52
2023-04-02T18:01:12.824Z,14.24
2023-04-02T18:04:11.291Z,13.52
2023-04-02T18:08:07.738Z,12.80
2023-04-02T18:15:03.490Z,11.53
2023-04-02T18:18:00.296Z,11.12
2023-04-02T18:26:09.381Z,10.21
2023-04-02T18:43:39.727Z,8.92
2023-04-02T18:46:39.297Z,8.73
2023-04-02T18:49:39.754Z,8.60
2023-04-02T18:52:48.019Z,8.42
2023-04-02T18:55:43.359Z,8.29
2023-04-02T18:59:02.965Z,8.13
2023-04-02T19:50:14.755Z,6.62
2023-04-02T19:53:20.146Z,6.58
2023-04-02T19:56:01.932Z,6.56
2023-04-02T19:58:58.234Z,6.55
2023-04-02T20:02:45.606Z,6.44
2023-04-02T20:05:38.263Z,6.38
2023-04-02T20:09:18.202Z,6.31
2023-04-02T20:11:50.394Z,6.28
2023-04-02T20:15:55.714Z,6.22
2023-04-02T20:18:39.770Z,6.14
2023-04-02T20:22:01.630Z,6.08
2023-04-02T20:29:42.035Z,5.92
2023-04-02T20:37:59.141Z,5.78
2023-04-02T20:41:55.258Z,5.76
2023-04-02T20:44:45.243Z,5.69
2023-04-02T20:47:43.699Z,5.67
2023-04-02T20:50:49.346Z,5.62
2023-04-02T20:53:42.185Z,5.59
2023-04-02T20:56:32.484Z,5.56
2023-04-02T20:59:20.169Z,5.54
2023-04-02T21:01:59.328Z,5.50
2023-04-02T21:04:54.905Z,5.46
2023-04-02T21:07:50.720Z,5.43
2023-04-02T21:10:52.678Z,5.35
2023-04-02T21:13:49.893Z,5.32
2023-04-02T21:16:37.007Z,5.30
2023-04-02T21:19:44.805Z,5.23
2023-04-02T21:23:02.452Z,5.16
2023-04-02T21:25:41.809Z,5.12
2023-04-02T21:29:59.529Z,5.05
2023-04-02T21:32:37.560Z,4.98
2023-04-02T21:39:37.794Z,4.85
2023-04-02T21:42:48.240Z,4.81
2023-04-02T21:45:24.525Z,4.77
2023-04-02T21:59:47.046Z,4.55
2023-04-02T22:02:49.842Z,4.54
2023-04-02T22:10:11.666Z,4.35
2023-04-02T22:13:37.595Z,4.29
2023-04-02T22:16:12.164Z,4.27
2023-04-02T22:18:48.977Z,4.28
2023-04-02T22:21:35.423Z,4.25
2023-04-02T22:28:18.761Z,4.10
2023-04-02T22:31:59.656Z,4.07
2023-04-02T22:48:04.515Z,3.74
2023-04-02T22:51:33.673Z,3.71
2023-04-02T22:58:36.776Z,3.60
2023-04-02T23:01:13.060Z,3.58
2023-04-02T23:03:49.848Z,3.54
2023-04-02T23:06:58.764Z,3.49
2023-04-02T23:09:40.551Z,3.48
2023-04-02T23:12:12.452Z,3.45
2023-04-02T23:15:08.143Z,3.41
2023-04-02T23:18:01.837Z,3.40
2023-04-02T23:20:44.001Z,3.36
2023-04-02T23:23:53.075Z,3.36
2023-04-02T23:27:02.796Z,3.28
2023-04-02T23:29:41.261Z,3.26
2023-04-02T23:35:02.449Z,3.23
2023-04-02T23:37:42.111Z,3.19
2023-04-02T23:40:17.206Z,3.18
2023-04-02T23:42:47.647Z,3.15
2023-04-02T23:46:06.985Z,3.08
2023-04-02T23:49:04.234Z,3.04
2023-04-02T23:51:51.500Z,3.02
2023-04-02T23:55:05.058Z,2.96
2023-04-02T23:58:01.664Z,2.92
